Time;durP1;ratioP1;P1;durP2;ratioP2;P2;SDS_P1;SDS_P2;PMS_P1;PMS_P2;Temp;Humidity;BMP_temperature;BMP_pressure;BME280_temperature;BME280_humidity;BME280_pressure;Samples;Min_cycle;Max_cycle;Signal;HPM_P1;HPM_P2
2023/04/26 00:01:29;;;;;;;9.50;3.45;;;5.70;99.90;;;;;;6185359;23;20166;-73
2023/04/26 00:03:58;;;;;;;9.55;3.70;;;5.80;99.90;;;;;;6186886;23;20165;-74
2023/04/26 00:06:26;;;;;;;9.10;4.10;;;5.80;99.90;;;;;;6185975;23;20253;-73
2023/04/26 00:08:52;;;;;;;8.70;4.25;;;5.90;99.90;;;;;;6186267;23;20201;-72
2023/04/26 00:11:19;;;;;;;9.20;4.18;;;5.90;99.90;;;;;;6185407;23;20193;-72
2023/04/26 00:13:46;;;;;;;10.07;4.10;;;5.90;99.90;;;;;;6186609;23;20803;-72
2023/04/26 00:16:13;;;;;;;11.90;5.18;;;6.00;99.90;;;;;;6186579;23;20167;-73
2023/04/26 00:18:42;;;;;;;9.57;3.85;;;5.90;99.90;;;;;;6185498;23;20229;-73
2023/04/26 00:21:10;;;;;;;9.50;3.35;;;5.90;99.90;;;;;;6185924;23;20162;-73
2023/04/26 00:23:37;;;;;;;10.52;4.72;;;5.80;99.90;;;;;;6185409;23;20543;-74
2023/04/26 00:26:04;;;;;;;13.70;4.63;;;5.80;99.90;;;;;;6186677;23;20248;-73
2023/04/26 00:28:31;;;;;;;15.77;5.50;;;5.70;99.90;;;;;;6185398;23;20283;-73
2023/04/26 00:30:58;;;;;;;16.77;5.03;;;5.70;99.90;;;;;;6185763;23;20239;-73
2023/04/26 00:33:25;;;;;;;9.80;4.78;;;5.60;99.90;;;;;;6185394;23;20336;-74
2023/04/26 00:35:52;;;;;;;8.00;4.53;;;5.60;99.90;;;;;;6185682;23;20205;-74
2023/04/26 00:38:20;;;;;;;15.23;4.93;;;5.60;99.90;;;;;;6185831;23;20269;-73
2023/04/26 00:40:47;;;;;;;7.35;4.38;;;5.50;99.90;;;;;;6184427;23;20276;-72
2023/04/26 00:43:14;;;;;;;12.40;5.35;;;5.40;99.90;;;;;;6186495;23;20197;-73
2023/04/26 00:45:42;;;;;;;12.35;5.03;;;5.40;99.90;;;;;;6185320;23;20167;-76
2023/04/26 00:48:09;;;;;;;13.52;4.85;;;5.30;99.90;;;;;;6185659;23;20217;-73
2023/04/26 00:50:35;;;;;;;10.93;4.88;;;5.30;99.90;;;;;;6185232;23;20189;-72
2023/04/26 00:53:03;;;;;;;8.40;5.07;;;5.30;99.90;;;;;;6185714;23;20191;-73
2023/04/26 00:55:31;;;;;;;10.07;4.70;;;5.20;99.90;;;;;;6185632;23;20168;-73
2023/04/26 00:57:58;;;;;;;11.55;4.45;;;5.20;99.90;;;;;;6185904;23;20243;-74
2023/04/26 01:00:26;;;;;;;14.65;3.53;;;5.20;99.90;;;;;;6185039;23;20304;-74
2023/04/26 01:02:53;;;;;;;14.20;4.53;;;5.20;99.90;;;;;;6185474;23;20192;-74
2023/04/26 01:05:20;;;;;;;20.15;5.30;;;5.20;99.90;;;;;;6185886;23;20161;-72
2023/04/26 01:07:48;;;;;;;8.40;4.20;;;5.20;99.90;;;;;;6185221;23;20160;-73
2023/04/26 01:10:15;;;;;;;7.63;4.45;;;5.10;99.90;;;;;;6185607;23;20192;-74
2023/04/26 01:12:43;;;;;;;9.18;4.22;;;5.10;99.90;;;;;;6184923;23;20682;-74
2023/04/26 01:15:11;;;;;;;9.77;4.25;;;5.10;99.90;;;;;;6186410;23;20160;-71
2023/04/26 01:17:38;;;;;;;6.63;4.05;;;5.10;99.90;;;;;;6185896;23;20168;-73
2023/04/26 01:20:08;;;;;;;8.77;4.90;;;5.20;99.90;;;;;;6185992;23;20287;-74
2023/04/26 01:22:37;;;;;;;16.05;5.55;;;5.20;99.90;;;;;;6186569;23;20164;-74
2023/04/26 01:25:07;;;;;;;9.95;4.25;;;5.10;99.90;;;;;;6185213;23;20161;-74
2023/04/26 01:27:34;;;;;;;7.28;4.75;;;5.20;99.90;;;;;;6185343;23;20188;-73
2023/04/26 01:30:02;;;;;;;12.48;5.20;;;5.20;99.90;;;;;;6184228;23;20196;-73
2023/04/26 01:32:29;;;;;;;9.70;6.53;;;5.30;99.90;;;;;;6186042;23;20165;-73
2023/04/26 01:34:55;;;;;;;10.45;4.47;;;5.30;99.90;;;;;;6185309;23;20168;-73
2023/04/26 01:37:23;;;;;;;8.57;4.72;;;5.30;99.90;;;;;;6185906;23;20267;-73
2023/04/26 01:39:52;;;;;;;7.60;4.43;;;5.20;99.90;;;;;;6184827;23;20278;-71
2023/04/26 01:42:19;;;;;;;8.70;4.07;;;5.30;99.90;;;;;;6185792;23;20187;-71
2023/04/26 01:44:46;;;;;;;11.88;4.90;;;5.30;99.90;;;;;;6185257;23;20247;-72
2023/04/26 01:47:13;;;;;;;8.38;4.32;;;5.40;99.90;;;;;;6185402;23;20172;-72
2023/04/26 01:49:40;;;;;;;11.85;4.40;;;5.50;99.90;;;;;;6184494;23;20319;-72
2023/04/26 01:52:08;;;;;;;11.10;4.32;;;5.50;99.90;;;;;;6185655;23;20195;-73
2023/04/26 01:54:35;;;;;;;10.95;4.60;;;5.60;99.90;;;;;;6186040;23;20244;-71
2023/04/26 01:57:03;;;;;;;8.18;4.53;;;5.60;99.90;;;;;;6186569;23;20239;-71
2023/04/26 01:59:30;;;;;;;10.77;4.35;;;5.60;99.90;;;;;;6187284;23;20227;-73
2023/04/26 02:01:57;;;;;;;11.43;4.50;;;5.70;99.90;;;;;;6190846;23;20164;-72
2023/04/26 02:04:24;;;;;;;7.95;5.03;;;5.70;99.90;;;;;;6192032;23;20659;-73
2023/04/26 02:06:57;;;;;;;9.50;5.40;;;5.70;99.90;;;;;;6191870;23;20184;-72
2023/04/26 02:09:23;;;;;;;9.68;4.53;;;5.70;99.90;;;;;;6189989;23;20206;-72
2023/04/26 02:11:50;;;;;;;13.98;4.60;;;5.80;99.90;;;;;;6185316;23;20196;-72
2023/04/26 02:14:19;;;;;;;14.38;4.28;;;5.70;99.90;;;;;;6185455;23;20160;-72
2023/04/26 02:16:46;;;;;;;9.73;4.97;;;5.70;99.90;;;;;;6183327;23;20214;-73
2023/04/26 02:19:13;;;;;;;13.55;6.15;;;5.70;99.90;;;;;;6184595;23;20206;-71
2023/04/26 02:21:54;;;;;;;8.18;4.20;;;5.70;99.90;;;;;;6184936;23;20167;-72
2023/04/26 02:24:22;;;;;;;8.63;5.45;;;5.50;99.90;;;;;;6185259;23;20165;-72
2023/04/26 02:26:49;;;;;;;13.70;5.22;;;5.50;99.90;;;;;;6185929;23;20242;-72
2023/04/26 02:29:15;;;;;;;16.88;4.80;;;5.40;99.90;;;;;;6185110;23;20282;-73
2023/04/26 02:31:44;;;;;;;11.02;5.95;;;5.30;99.90;;;;;;6183559;23;20199;-73
2023/04/26 02:34:12;;;;;;;11.45;5.53;;;5.30;99.90;;;;;;6185605;23;20259;-71
2023/04/26 02:36:38;;;;;;;11.88;5.80;;;5.30;99.90;;;;;;6185216;23;20165;-71
2023/04/26 02:39:06;;;;;;;7.63;4.80;;;5.20;99.90;;;;;;6184758;23;20278;-72
2023/04/26 02:41:33;;;;;;;9.18;5.43;;;5.10;99.90;;;;;;6183966;23;20185;-72
2023/04/26 02:44:00;;;;;;;16.88;6.07;;;5.10;99.90;;;;;;6185701;23;20243;-72
2023/04/26 02:46:27;;;;;;;7.18;4.85;;;5.00;99.90;;;;;;6184962;23;20192;-73
2023/04/26 02:48:55;;;;;;;13.68;6.30;;;5.00;99.90;;;;;;6183571;23;20196;-71
2023/04/26 02:51:23;;;;;;;12.15;6.00;;;5.00;99.90;;;;;;6184470;23;20168;-72
2023/04/26 02:53:50;;;;;;;6.78;4.25;;;4.90;99.90;;;;;;6184537;23;20251;-72
2023/04/26 02:56:18;;;;;;;7.65;4.80;;;4.90;99.90;;;;;;6185055;23;20247;-72
2023/04/26 02:58:45;;;;;;;15.00;5.88;;;4.90;99.90;;;;;;6184735;23;20203;-72
2023/04/26 03:01:13;;;;;;;12.00;5.13;;;4.80;99.90;;;;;;6184109;23;20187;-72
2023/04/26 03:03:40;;;;;;;13.20;5.07;;;4.80;99.90;;;;;;6184350;23;20176;-72
2023/04/26 03:06:09;;;;;;;7.80;4.72;;;4.80;99.90;;;;;;6185462;23;20163;-74
2023/04/26 03:08:35;;;;;;;24.95;6.78;;;4.80;99.90;;;;;;6184490;23;20598;-72
2023/04/26 03:11:03;;;;;;;10.25;5.20;;;4.80;99.90;;;;;;6184118;23;20342;-73
2023/04/26 03:13:30;;;;;;;11.60;5.95;;;4.80;99.90;;;;;;6185377;23;20161;-74
2023/04/26 03:15:59;;;;;;;12.32;5.10;;;4.80;99.90;;;;;;6186750;23;20198;-73
2023/04/26 03:18:26;;;;;;;7.63;5.75;;;4.90;99.90;;;;;;6184718;23;20164;-72
2023/04/26 03:20:53;;;;;;;10.10;5.88;;;4.90;99.90;;;;;;6183995;23;20215;-72
2023/04/26 03:23:23;;;;;;;11.45;6.00;;;5.00;99.90;;;;;;6184507;23;20224;-73
2023/04/26 03:25:50;;;;;;;11.13;5.60;;;5.10;99.90;;;;;;6184544;23;20172;-72
2023/04/26 03:28:17;;;;;;;15.80;5.57;;;5.20;99.90;;;;;;6184556;23;20188;-72
2023/04/26 03:30:44;;;;;;;7.93;5.05;;;5.20;99.90;;;;;;6185550;23;20163;-73
2023/04/26 03:33:12;;;;;;;11.98;5.80;;;5.20;99.90;;;;;;6187116;23;20169;-73
2023/04/26 03:35:39;;;;;;;11.43;5.70;;;5.20;99.90;;;;;;6186718;23;20160;-72
2023/04/26 03:38:05;;;;;;;13.68;5.95;;;5.20;99.90;;;;;;6186639;23;20160;-72
2023/04/26 03:40:34;;;;;;;9.63;5.13;;;5.20;99.90;;;;;;6186081;23;20306;-73
2023/04/26 03:43:01;;;;;;;12.43;5.05;;;5.20;99.90;;;;;;6186391;23;20165;-72
2023/04/26 03:45:28;;;;;;;12.55;5.80;;;5.20;99.90;;;;;;6186728;23;20189;-73
2023/04/26 03:47:55;;;;;;;11.38;5.47;;;5.10;99.90;;;;;;6186887;23;20164;-71
2023/04/26 03:50:22;;;;;;;8.90;5.38;;;5.10;99.90;;;;;;6185501;23;20200;-74
2023/04/26 03:52:49;;;;;;;9.60;5.47;;;5.10;99.90;;;;;;6186430;23;20247;-72
2023/04/26 03:55:16;;;;;;;14.35;5.93;;;5.10;99.90;;;;;;6186075;23;20169;-71
2023/04/26 03:57:45;;;;;;;12.90;5.07;;;5.00;99.90;;;;;;6186922;23;20240;-73
2023/04/26 04:00:13;;;;;;;11.80;5.88;;;5.00;99.90;;;;;;6184925;23;20734;-72
2023/04/26 04:02:41;;;;;;;11.50;6.65;;;5.00;99.90;;;;;;6186635;23;20489;-71
2023/04/26 04:05:09;;;;;;;24.13;7.43;;;4.90;99.90;;;;;;6186179;23;20600;-72
2023/04/26 04:07:36;;;;;;;6.45;4.15;;;4.90;99.90;;;;;;6185754;23;20164;-73
2023/04/26 04:10:03;;;;;;;16.67;6.30;;;4.90;99.90;;;;;;6185357;23;20231;-71
2023/04/26 04:12:30;;;;;;;9.68;5.45;;;4.80;99.90;;;;;;6186303;23;20192;-72
2023/04/26 04:14:59;;;;;;;11.05;5.05;;;4.70;99.90;;;;;;6186590;23;20218;-72
2023/04/26 04:17:26;;;;;;;9.98;6.82;;;4.70;99.90;;;;;;6186267;23;20490;-73
2023/04/26 04:19:53;;;;;;;11.80;5.22;;;4.70;99.90;;;;;;6185037;23;20282;-73
2023/04/26 04:22:19;;;;;;;7.90;5.55;;;4.70;99.90;;;;;;6186436;23;20243;-73
2023/04/26 04:24:46;;;;;;;10.55;6.15;;;4.60;99.90;;;;;;6190988;23;20491;-74
2023/04/26 04:27:13;;;;;;;22.13;8.52;;;4.70;99.90;;;;;;6185960;23;20264;-74
2023/04/26 04:29:41;;;;;;;10.57;5.90;;;4.70;99.90;;;;;;6185545;23;20200;-74
2023/04/26 04:32:10;;;;;;;12.77;6.20;;;4.70;99.90;;;;;;6186672;23;20168;-74
2023/04/26 04:34:37;;;;;;;8.95;5.38;;;4.70;99.90;;;;;;6186222;23;20243;-73
2023/04/26 04:37:04;;;;;;;10.30;4.88;;;4.80;99.90;;;;;;6186406;23;20634;-71
2023/04/26 04:39:31;;;;;;;9.43;4.95;;;4.90;99.90;;;;;;6188061;23;20207;-71
2023/04/26 04:41:59;;;;;;;15.32;5.75;;;5.00;99.90;;;;;;6191198;23;20180;-71
2023/04/26 04:44:26;;;;;;;11.18;5.65;;;5.10;99.90;;;;;;6193584;23;20220;-72
2023/04/26 04:46:53;;;;;;;8.88;6.70;;;5.20;99.90;;;;;;6193934;23;20280;-71
2023/04/26 04:49:23;;;;;;;13.38;5.30;;;5.20;99.90;;;;;;6192783;23;20228;-71
2023/04/26 04:51:50;;;;;;;12.55;6.45;;;5.20;99.90;;;;;;6188982;23;20568;-72
2023/04/26 04:54:18;;;;;;;7.03;5.03;;;5.30;99.90;;;;;;6186134;23;20171;-73
2023/04/26 04:56:45;;;;;;;15.40;5.20;;;5.50;99.90;;;;;;6185860;23;20621;-73
2023/04/26 04:59:12;;;;;;;6.20;4.60;;;5.80;99.90;;;;;;6185733;23;20217;-73
2023/04/26 05:01:39;;;;;;;10.57;6.20;;;5.70;99.90;;;;;;6184675;23;20181;-72
2023/04/26 05:04:07;;;;;;;11.63;4.82;;;5.80;99.90;;;;;;6184793;23;20161;-73
2023/04/26 05:06:35;;;;;;;9.70;5.57;;;6.00;99.90;;;;;;6185048;23;20166;-74
2023/04/26 05:09:04;;;;;;;8.43;4.60;;;6.40;99.90;;;;;;6185664;23;20582;-74
2023/04/26 05:11:31;;;;;;;9.30;4.60;;;7.00;99.90;;;;;;6184165;23;20216;-73
2023/04/26 05:13:59;;;;;;;13.50;4.13;;;7.70;99.90;;;;;;6186249;23;20226;-74
2023/04/26 05:16:26;;;;;;;6.75;3.03;;;8.40;99.90;;;;;;6185680;23;20202;-74
2023/04/26 05:18:54;;;;;;;7.80;3.38;;;8.80;99.90;;;;;;6185018;23;20204;-74
2023/04/26 05:21:22;;;;;;;7.70;3.10;;;9.30;99.90;;;;;;6184245;23;20215;-73
2023/04/26 05:23:50;;;;;;;7.72;4.60;;;10.00;99.90;;;;;;6184397;23;20162;-73
2023/04/26 05:26:17;;;;;;;8.85;3.80;;;10.50;99.90;;;;;;6185889;23;20167;-75
2023/04/26 05:28:44;;;;;;;4.15;2.50;;;10.90;99.90;;;;;;6184060;23;20242;-73
2023/04/26 05:31:12;;;;;;;6.13;3.10;;;11.50;99.90;;;;;;6185229;23;20186;-73
2023/04/26 05:33:39;;;;;;;3.92;3.25;;;12.20;99.90;;;;;;6185401;23;20243;-73
2023/04/26 05:36:08;;;;;;;5.97;2.80;;;12.60;98.30;;;;;;6185106;23;20219;-75
2023/04/26 05:38:35;;;;;;;5.82;2.75;;;13.10;97.10;;;;;;6184943;23;20755;-72
2023/04/26 05:41:05;;;;;;;7.22;2.72;;;13.70;94.50;;;;;;6184460;23;20192;-74
2023/04/26 05:43:32;;;;;;;6.63;3.15;;;14.10;93.30;;;;;;6185830;23;20191;-75
2023/04/26 05:45:59;;;;;;;10.60;3.00;;;14.60;92.70;;;;;;6185280;23;20861;-72
2023/04/26 05:48:26;;;;;;;7.00;3.00;;;14.20;91.40;;;;;;6186094;23;20167;-74
2023/04/26 05:50:53;;;;;;;5.00;3.08;;;13.40;91.90;;;;;;6183904;23;20165;-74
2023/04/26 05:53:20;;;;;;;7.90;3.47;;;12.50;93.60;;;;;;6185120;23;20168;-74
2023/04/26 05:55:47;;;;;;;5.18;2.58;;;12.70;95.10;;;;;;6184981;23;20179;-72
2023/04/26 05:58:15;;;;;;;4.65;2.25;;;13.20;93.70;;;;;;6185460;23;20561;-73
2023/04/26 06:00:43;;;;;;;11.70;2.88;;;13.70;92.80;;;;;;6183928;23;20252;-74
2023/04/26 06:03:09;;;;;;;8.02;2.75;;;14.30;92.00;;;;;;6185125;23;20202;-74
2023/04/26 06:05:38;;;;;;;13.10;3.83;;;15.40;90.50;;;;;;6185256;23;20242;-73
2023/04/26 06:08:05;;;;;;;8.30;2.67;;;15.90;88.20;;;;;;6184855;23;20175;-74
2023/04/26 06:10:32;;;;;;;13.10;2.77;;;16.40;86.40;;;;;;6184687;23;20434;-75
2023/04/26 06:12:59;;;;;;;5.90;3.00;;;16.70;84.60;;;;;;6184400;23;20408;-74
2023/04/26 06:15:27;;;;;;;6.13;3.20;;;16.40;83.30;;;;;;6185502;23;20724;-75
2023/04/26 06:17:54;;;;;;;7.70;3.50;;;14.90;84.40;;;;;;6185259;23;20248;-74
2023/04/26 06:20:22;;;;;;;4.80;2.80;;;14.60;87.40;;;;;;6184248;23;20299;-74
2023/04/26 06:22:49;;;;;;;7.65;3.70;;;13.70;89.20;;;;;;6185418;23;20263;-73
2023/04/26 06:25:16;;;;;;;7.38;2.70;;;13.10;90.50;;;;;;6185397;23;20241;-74
2023/04/26 06:27:43;;;;;;;5.78;2.97;;;13.10;91.80;;;;;;6184770;23;20283;-73
2023/04/26 06:30:10;;;;;;;6.38;2.70;;;13.40;91.90;;;;;;6184518;23;20296;-73
2023/04/26 06:32:41;;;;;;;6.93;2.75;;;14.30;90.90;;;;;;6185137;23;20157;-72
2023/04/26 06:35:09;;;;;;;6.23;4.00;;;15.50;89.20;;;;;;6184944;23;20173;-74
2023/04/26 06:37:37;;;;;;;4.30;2.90;;;15.60;85.20;;;;;;6184879;23;20473;-74
2023/04/26 06:40:05;;;;;;;4.27;2.47;;;15.90;83.70;;;;;;6184561;23;20199;-73
2023/04/26 06:42:33;;;;;;;5.07;2.80;;;16.30;83.10;;;;;;6184440;23;20430;-73
2023/04/26 06:45:00;;;;;;;5.93;3.10;;;15.80;81.90;;;;;;6184557;23;20476;-73
2023/04/26 06:47:27;;;;;;;7.15;2.88;;;14.90;83.10;;;;;;6184764;23;20244;-72
2023/04/26 06:49:55;;;;;;;11.25;3.35;;;14.90;84.80;;;;;;6184035;23;20197;-71
2023/04/26 06:52:22;;;;;;;5.70;3.13;;;15.20;86.00;;;;;;6184508;23;20191;-74
2023/04/26 06:54:49;;;;;;;7.10;3.50;;;15.80;85.10;;;;;;6184442;23;20471;-73
2023/04/26 06:57:16;;;;;;;4.77;3.57;;;15.50;84.10;;;;;;6185270;23;20446;-73
2023/04/26 06:59:43;;;;;;;4.30;3.10;;;15.90;84.00;;;;;;6183703;23;20454;-74
2023/04/26 07:02:10;;;;;;;8.37;3.50;;;15.50;83.90;;;;;;6185009;23;20526;-73
2023/04/26 07:04:36;;;;;;;3.37;2.93;;;15.70;83.50;;;;;;6184574;23;20455;-72
2023/04/26 07:07:05;;;;;;;6.50;3.07;;;16.40;82.60;;;;;;6186907;23;20430;-71
2023/04/26 07:09:32;;;;;;;5.30;2.63;;;16.90;81.40;;;;;;6185513;23;20521;-74
2023/04/26 07:12:01;;;;;;;5.67;2.80;;;17.30;79.80;;;;;;6186698;23;20387;-73
2023/04/26 07:14:28;;;;;;;2.73;2.43;;;17.80;78.80;;;;;;6186139;23;20745;-72
2023/04/26 07:16:56;;;;;;;8.43;3.50;;;17.80;78.50;;;;;;6186345;23;20770;-74
2023/04/26 07:19:23;;;;;;;7.23;3.67;;;18.70;78.30;;;;;;6185499;23;20428;-72
2023/04/26 07:21:50;;;;;;;4.90;2.97;;;18.50;74.70;;;;;;6186091;23;20431;-72
2023/04/26 07:24:18;;;;;;;5.83;3.23;;;18.10;75.50;;;;;;6187034;23;20439;-73
2023/04/26 07:26:46;;;;;;;7.37;3.00;;;18.90;75.70;;;;;;6185945;23;20424;-73
2023/04/26 07:29:13;;;;;;;3.97;3.20;;;19.50;73.40;;;;;;6186393;23;20515;-72
2023/04/26 07:31:40;;;;;;;4.37;2.50;;;19.90;72.00;;;;;;6186116;23;20391;-72
2023/04/26 07:34:07;;;;;;;7.13;3.13;;;20.00;70.80;;;;;;6187584;23;20479;-73
2023/04/26 07:36:35;;;;;;;5.93;2.63;;;19.90;68.90;;;;;;6187574;23;20395;-72
2023/04/26 07:39:04;;;;;;;6.67;2.70;;;19.80;69.30;;;;;;6189371;23;20436;-71
2023/04/26 07:41:32;;;;;;;4.50;2.77;;;20.00;69.70;;;;;;6190646;23;20452;-73
2023/04/26 07:43:59;;;;;;;7.47;2.77;;;20.00;68.30;;;;;;6193644;23;20396;-70
2023/04/26 07:46:26;;;;;;;6.43;3.20;;;20.20;68.60;;;;;;6192690;23;20395;-73
2023/04/26 07:48:53;;;;;;;3.73;2.80;;;20.20;68.10;;;;;;6190885;23;20437;-73
2023/04/26 07:51:28;;;;;;;7.13;3.33;;;19.50;67.90;;;;;;6189396;23;20410;-73
2023/04/26 07:53:55;;;;;;;8.80;3.40;;;19.20;70.00;;;;;;6187944;23;20410;-73
2023/04/26 07:56:25;;;;;;;11.17;3.93;;;19.70;72.60;;;;;;6190175;23;20391;-74
2023/04/26 07:58:55;;;;;;;6.93;3.10;;;19.90;69.80;;;;;;6186622;23;20431;-73
2023/04/26 08:01:22;;;;;;;7.17;2.73;;;21.00;69.20;;;;;;6185645;23;20461;-74
2023/04/26 08:03:48;;;;;;;6.60;4.03;;;20.60;67.10;;;;;;6186183;23;20455;-73
2023/04/26 08:06:15;;;;;;;6.40;3.10;;;19.70;68.20;;;;;;6186471;23;20885;-74
2023/04/26 08:08:49;;;;;;;6.50;3.10;;;18.40;71.30;;;;;;6189478;23;20431;-76
2023/04/26 08:11:17;;;;;;;6.87;3.97;;;17.50;72.50;;;;;;6159132;23;20415;-74
2023/04/26 08:13:44;;;;;;;5.65;3.45;;;16.50;74.20;;;;;;6186003;23;20396;-73
2023/04/26 08:16:12;;;;;;;9.05;3.40;;;15.50;76.10;;;;;;6185825;23;20164;-73
2023/04/26 08:18:39;;;;;;;5.28;3.05;;;14.60;78.10;;;;;;6184729;23;20745;-72
2023/04/26 08:21:06;;;;;;;9.30;4.25;;;13.60;81.20;;;;;;6186897;23;20200;-73
2023/04/26 08:23:34;;;;;;;8.85;3.28;;;13.40;83.20;;;;;;6186650;23;20160;-73
2023/04/26 08:26:03;;;;;;;6.57;2.63;;;13.30;84.30;;;;;;6184179;23;20164;-72
2023/04/26 08:28:30;;;;;;;7.28;2.90;;;13.10;83.70;;;;;;6187531;23;20273;-74
2023/04/26 08:31:00;;;;;;;4.13;3.20;;;13.10;84.30;;;;;;6187014;23;20630;-74
2023/04/26 08:33:30;;;;;;;7.55;3.42;;;13.30;84.60;;;;;;6187934;23;20163;-74
2023/04/26 08:36:00;;;;;;;7.90;3.60;;;12.80;84.10;;;;;;6187582;23;20184;-75
2023/04/26 08:38:29;;;;;;;4.57;2.80;;;12.90;85.20;;;;;;6187501;23;20176;-73
2023/04/26 08:41:00;;;;;;;12.15;3.38;;;13.20;84.60;;;;;;6187334;23;20167;-74
2023/04/26 08:43:28;;;;;;;4.20;2.83;;;13.60;82.50;;;;;;6186463;23;20180;-73
2023/04/26 08:45:55;;;;;;;13.60;4.63;;;13.70;83.80;;;;;;6186163;23;20655;-73
2023/04/26 08:48:23;;;;;;;8.32;4.70;;;14.60;84.10;;;;;;6186197;23;20165;-74
2023/04/26 08:50:53;;;;;;;6.60;4.47;;;15.20;80.90;;;;;;6185529;23;20165;-73
2023/04/26 08:53:20;;;;;;;6.03;3.70;;;14.40;79.20;;;;;;6185838;23;20592;-73
2023/04/26 08:55:49;;;;;;;7.95;3.38;;;13.90;80.20;;;;;;6186236;23;20192;-73
2023/04/26 08:58:17;;;;;;;13.13;4.85;;;13.30;82.20;;;;;;6186273;23;20192;-73
2023/04/26 09:00:45;;;;;;;8.73;4.13;;;13.00;83.20;;;;;;6185862;23;20247;-73
2023/04/26 09:03:11;;;;;;;10.55;4.25;;;12.60;84.50;;;;;;6186211;23;20238;-74
2023/04/26 09:05:42;;;;;;;5.13;3.50;;;12.20;85.70;;;;;;6185532;23;20198;-73
2023/04/26 09:08:16;;;;;;;7.10;3.13;;;12.10;86.70;;;;;;6188505;23;20177;-72
2023/04/26 09:10:43;;;;;;;6.93;3.60;;;12.00;87.60;;;;;;6184466;23;20170;-73
2023/04/26 09:13:10;;;;;;;9.98;6.30;;;11.90;87.60;;;;;;6185203;23;20610;-73
2023/04/26 09:15:37;;;;;;;10.18;3.92;;;11.90;88.50;;;;;;6185987;23;20574;-72
2023/04/26 09:18:18;;;;;;;11.38;5.55;;;11.90;89.90;;;;;;6187794;23;20587;-75
2023/04/26 09:20:46;;;;;;;8.43;3.78;;;12.60;91.20;;;;;;6186881;23;20175;-74
2023/04/26 09:23:18;;;;;;;13.70;4.35;;;13.30;87.90;;;;;;6187700;23;20569;-73
2023/04/26 09:25:44;;;;;;;10.00;4.13;;;13.50;88.20;;;;;;6186462;23;20191;-75
2023/04/26 09:28:22;;;;;;;8.98;4.38;;;13.50;87.50;;;;;;6185053;23;20187;-74
2023/04/26 09:30:49;;;;;;;12.85;6.63;;;13.40;82.90;;;;;;6185315;23;20164;-74
2023/04/26 09:33:16;;;;;;;9.70;3.90;;;12.90;84.70;;;;;;6185248;23;20164;-73
2023/04/26 09:35:44;;;;;;;10.93;4.00;;;12.20;87.00;;;;;;6186017;23;20251;-73
2023/04/26 09:38:15;;;;;;;9.95;5.40;;;11.70;90.20;;;;;;6189338;23;20489;-73
2023/04/26 09:40:48;;;;;;;12.88;4.82;;;11.50;92.20;;;;;;6187769;23;20175;-75
2023/04/26 09:43:18;;;;;;;10.40;4.63;;;11.50;92.20;;;;;;6186622;23;20175;-73
2023/04/26 09:45:48;;;;;;;8.20;3.92;;;11.30;91.70;;;;;;6186521;23;20175;-72
2023/04/26 09:48:20;;;;;;;3.45;2.67;;;10.90;92.30;;;;;;6185209;23;20167;-73
2023/04/26 09:50:47;;;;;;;21.48;9.70;;;10.60;92.20;;;;;;6184696;23;20562;-73
2023/04/26 09:53:26;;;;;;;6.93;2.90;;;10.40;92.70;;;;;;6184264;23;20573;-73
2023/04/26 09:55:56;;;;;;;4.85;3.28;;;10.40;93.10;;;;;;6185105;23;20249;-74
2023/04/26 09:58:23;;;;;;;6.65;3.40;;;10.60;94.20;;;;;;6185168;23;20174;-72
2023/04/26 10:00:51;;;;;;;4.25;2.95;;;10.80;93.00;;;;;;6185809;23;20628;-73
2023/04/26 10:03:19;;;;;;;5.43;3.00;;;11.10;92.40;;;;;;6184824;23;20260;-72
2023/04/26 10:05:48;;;;;;;6.47;2.90;;;11.10;91.60;;;;;;6184886;23;20190;-72
2023/04/26 10:08:15;;;;;;;5.18;3.55;;;10.80;92.30;;;;;;6185851;23;20165;-73
2023/04/26 10:10:42;;;;;;;4.65;2.25;;;10.90;93.00;;;;;;6184704;23;20161;-72
2023/04/26 10:13:11;;;;;;;4.13;2.97;;;11.00;94.30;;;;;;6185262;23;20172;-73
2023/04/26 10:15:40;;;;;;;15.63;4.72;;;11.10;94.00;;;;;;6184862;23;20178;-73
2023/04/26 10:18:07;;;;;;;4.50;2.63;;;11.20;94.10;;;;;;6185141;23;20166;-73
2023/04/26 10:20:39;;;;;;;5.15;2.67;;;11.50;94.10;;;;;;6187943;23;20206;-74
2023/04/26 10:23:12;;;;;;;4.53;2.65;;;11.50;92.90;;;;;;6185768;23;20576;-73
2023/04/26 10:25:49;;;;;;;6.80;2.70;;;11.50;92.80;;;;;;6187184;23;20171;-73
2023/04/26 10:28:18;;;;;;;7.78;3.58;;;11.60;93.10;;;;;;6187001;23;20190;-74
2023/04/26 10:30:54;;;;;;;4.75;2.60;;;11.50;92.30;;;;;;6184466;23;20604;-73
2023/04/26 10:33:22;;;;;;;6.88;3.33;;;11.80;92.40;;;;;;6183874;23;20159;-73
2023/04/26 10:36:09;;;;;;;3.45;2.03;;;12.20;91.40;;;;;;6186199;23;20238;-73
2023/04/26 10:38:38;;;;;;;2.88;2.30;;;12.60;90.70;;;;;;6189353;23;20334;-75
2023/04/26 10:41:28;;;;;;;7.85;3.42;;;13.00;90.40;;;;;;6190428;23;20165;-73
2023/04/26 10:43:56;;;;;;;7.13;3.45;;;13.40;90.10;;;;;;6191058;23;20192;-73
2023/04/26 10:46:37;;;;;;;7.75;3.55;;;13.60;88.70;;;;;;6193071;23;20227;-71
2023/04/26 10:49:17;;;;;;;8.70;2.97;;;13.10;89.80;;;;;;6188528;23;20282;-73
2023/04/26 10:52:11;;;;;;;5.47;2.65;;;12.50;90.80;;;;;;6183723;23;20258;-72
2023/04/26 10:55:02;;;;;;;5.85;2.25;;;11.60;91.00;;;;;;6183480;23;20606;-74
2023/04/26 10:57:52;;;;;;;7.22;2.67;;;10.80;93.20;;;;;;6184211;23;20169;-72
2023/04/26 11:00:31;;;;;;;8.55;2.50;;;10.60;94.50;;;;;;6182907;23;20227;-74
2023/04/26 11:03:07;;;;;;;3.55;2.35;;;10.40;94.90;;;;;;6184203;23;20247;-72
2023/04/26 11:05:36;;;;;;;6.10;2.70;;;10.00;95.80;;;;;;6184071;23;20166;-74
2023/04/26 11:08:08;;;;;;;6.35;2.88;;;10.00;96.60;;;;;;6184647;23;20162;-72
2023/04/26 11:10:38;;;;;;;6.43;2.40;;;10.20;97.20;;;;;;6186793;23;20162;-72
2023/04/26 11:13:05;;;;;;;6.63;2.17;;;10.70;97.30;;;;;;6185330;23;20160;-72
2023/04/26 11:15:34;;;;;;;9.13;2.33;;;11.00;96.20;;;;;;6185162;23;20166;-72
2023/04/26 11:18:03;;;;;;;9.80;2.10;;;11.30;96.10;;;;;;6183587;23;20191;-72
2023/04/26 11:20:31;;;;;;;3.50;2.10;;;11.80;95.20;;;;;;6184058;23;20199;-72
2023/04/26 11:23:01;;;;;;;5.90;3.17;;;12.00;94.60;;;;;;6184588;23;20187;-72
2023/04/26 11:25:29;;;;;;;7.82;3.10;;;12.10;94.00;;;;;;6184729;23;20202;-73
2023/04/26 11:28:00;;;;;;;5.40;2.85;;;12.10;93.40;;;;;;6184752;23;20282;-72
2023/04/26 11:30:30;;;;;;;3.97;2.22;;;12.10;93.50;;;;;;6183388;23;20539;-73
2023/04/26 11:32:59;;;;;;;4.35;2.65;;;12.40;92.90;;;;;;6184440;23;20167;-72
2023/04/26 11:35:28;;;;;;;5.55;3.67;;;12.40;92.40;;;;;;6184466;23;20539;-73
2023/04/26 11:37:59;;;;;;;8.43;4.10;;;12.50;92.50;;;;;;6184122;23;20170;-73
2023/04/26 11:40:31;;;;;;;12.25;2.90;;;12.80;92.80;;;;;;6183519;23;20203;-72
2023/04/26 11:43:02;;;;;;;5.60;1.85;;;13.00;92.00;;;;;;6184633;23;20215;-73
2023/04/26 11:45:29;;;;;;;8.68;2.95;;;13.30;91.90;;;;;;6184588;23;20175;-74
2023/04/26 11:47:57;;;;;;;4.13;2.25;;;13.70;91.10;;;;;;6184250;23;20165;-73
2023/04/26 11:50:26;;;;;;;5.90;2.35;;;13.90;90.20;;;;;;6184118;23;20534;-74
2023/04/26 11:52:55;;;;;;;5.20;1.77;;;14.20;89.60;;;;;;6186362;23;20167;-71
2023/04/26 11:55:29;;;;;;;6.20;2.00;;;14.20;85.00;;;;;;6187172;23;20514;-74
2023/04/26 11:57:57;;;;;;;4.07;2.10;;;14.30;84.40;;;;;;6160032;23;20262;-72
2023/04/26 12:00:26;;;;;;;3.88;2.00;;;14.00;83.40;;;;;;6186386;23;20206;-74
2023/04/26 12:02:56;;;;;;;6.30;2.15;;;13.70;84.40;;;;;;6186734;23;20226;-72
2023/04/26 12:05:30;;;;;;;2.60;2.40;;;13.50;85.10;;;;;;6185999;23;20538;-72
2023/04/26 12:07:58;;;;;;;10.15;2.42;;;13.30;87.20;;;;;;6185858;23;20247;-71
2023/04/26 12:10:26;;;;;;;4.35;1.85;;;12.70;90.40;;;;;;6185622;23;20202;-74
2023/04/26 12:12:55;;;;;;;4.60;2.00;;;12.10;91.70;;;;;;6186175;23;20505;-72
2023/04/26 12:15:29;;;;;;;6.38;2.03;;;11.70;92.90;;;;;;6186129;23;20192;-73
2023/04/26 12:17:58;;;;;;;3.40;2.38;;;11.30;93.60;;;;;;6186141;23;20196;-73
2023/04/26 12:20:32;;;;;;;6.22;2.30;;;11.00;94.20;;;;;;6182277;23;20196;-72
2023/04/26 12:23:06;;;;;;;3.20;2.20;;;10.70;94.60;;;;;;6186034;23;20188;-74
2023/04/26 12:25:35;;;;;;;7.47;2.83;;;10.50;94.80;;;;;;6185835;23;20230;-72
2023/04/26 12:28:04;;;;;;;5.80;3.13;;;10.30;94.90;;;;;;6185301;23;20627;-72
2023/04/26 12:30:31;;;;;;;5.50;2.28;;;10.40;95.40;;;;;;6185763;23;20279;-73
2023/04/26 12:32:58;;;;;;;3.85;2.28;;;10.50;95.20;;;;;;6186436;23;20237;-71
2023/04/26 12:35:25;;;;;;;6.25;1.90;;;10.70;94.80;;;;;;6186557;23;20250;-73
2023/04/26 12:37:55;;;;;;;6.13;2.22;;;10.80;94.10;;;;;;6185174;23;20162;-74
2023/04/26 12:40:23;;;;;;;8.50;2.42;;;10.80;94.40;;;;;;6185332;23;20197;-72
2023/04/26 12:42:50;;;;;;;6.38;1.75;;;10.70;94.60;;;;;;6185758;23;20260;-71
2023/04/26 12:45:19;;;;;;;10.80;2.05;;;10.70;95.10;;;;;;6185459;23;20217;-73
2023/04/26 12:47:46;;;;;;;6.03;2.63;;;10.60;94.80;;;;;;6185874;23;20231;-72
2023/04/26 12:50:14;;;;;;;4.85;1.50;;;10.30;94.30;;;;;;6185229;23;20263;-73
2023/04/26 12:52:42;;;;;;;5.65;2.00;;;10.20;94.00;;;;;;6185770;23;20608;-72
2023/04/26 12:55:12;;;;;;;4.60;2.03;;;10.20;93.90;;;;;;6185111;23;20169;-73